sensor_id;sensor_type;location;lat;lon;timestamp;pressure;altitude;pressure_sealevel;temperature
11424;BMP180;5768;51.476;7.210;2023-04-25T00:03:48;99598.00;;;10.30
11424;BMP180;5768;51.476;7.210;2023-04-25T00:08:52;99600.00;;;10.40
11424;BMP180;5768;51.476;7.210;2023-04-25T00:13:54;99604.00;;;10.50
11424;BMP180;5768;51.476;7.210;2023-04-25T00:18:56;99602.00;;;10.50
11424;BMP180;5768;51.476;7.210;2023-04-25T00:24:00;99614.00;;;10.60
11424;BMP180;5768;51.476;7.210;2023-04-25T00:29:03;99602.00;;;10.50
11424;BMP180;5768;51.476;7.210;2023-04-25T00:34:06;99608.00;;;10.50
11424;BMP180;5768;51.476;7.210;2023-04-25T00:39:10;99608.00;;;10.60
11424;BMP180;5768;51.476;7.210;2023-04-25T00:44:15;99608.00;;;10.60
11424;BMP180;5768;51.476;7.210;2023-04-25T00:49:17;99601.00;;;10.70
11424;BMP180;5768;51.476;7.210;2023-04-25T00:54:21;99589.00;;;10.70
11424;BMP180;5768;51.476;7.210;2023-04-25T00:59:24;99597.00;;;10.70
11424;BMP180;5768;51.476;7.210;2023-04-25T01:04:28;99604.00;;;10.70
11424;BMP180;5768;51.476;7.210;2023-04-25T01:09:32;99603.00;;;10.90
11424;BMP180;5768;51.476;7.210;2023-04-25T01:14:34;99607.00;;;10.90
11424;BMP180;5768;51.476;7.210;2023-04-25T01:19:37;99613.00;;;10.90
11424;BMP180;5768;51.476;7.210;2023-04-25T01:24:41;99610.00;;;10.80
11424;BMP180;5768;51.476;7.210;2023-04-25T01:29:43;99611.00;;;10.80
11424;BMP180;5768;51.476;7.210;2023-04-25T01:34:46;99606.00;;;10.80
11424;BMP180;5768;51.476;7.210;2023-04-25T01:39:50;99611.00;;;10.80
11424;BMP180;5768;51.476;7.210;2023-04-25T01:44:52;99608.00;;;10.70
11424;BMP180;5768;51.476;7.210;2023-04-25T01:49:54;99613.00;;;10.70
11424;BMP180;5768;51.476;7.210;2023-04-25T01:54:59;99621.00;;;10.70
11424;BMP180;5768;51.476;7.210;2023-04-25T02:00:06;99617.00;;;10.80
11424;BMP180;5768;51.476;7.210;2023-04-25T02:05:09;99626.00;;;10.80
11424;BMP180;5768;51.476;7.210;2023-04-25T02:10:13;99636.00;;;10.80
11424;BMP180;5768;51.476;7.210;2023-04-25T02:15:15;99629.00;;;10.80
11424;BMP180;5768;51.476;7.210;2023-04-25T02:20:17;99640.00;;;10.80
11424;BMP180;5768;51.476;7.210;2023-04-25T02:25:23;99643.00;;;10.80
11424;BMP180;5768;51.476;7.210;2023-04-25T02:30:26;99653.00;;;10.80
11424;BMP180;5768;51.476;7.210;2023-04-25T02:35:28;99651.00;;;10.60
11424;BMP180;5768;51.476;7.210;2023-04-25T02:40:32;99653.00;;;10.60
11424;BMP180;5768;51.476;7.210;2023-04-25T02:45:34;99657.00;;;10.50
11424;BMP180;5768;51.476;7.210;2023-04-25T02:50:36;99663.00;;;10.50
11424;BMP180;5768;51.476;7.210;2023-04-25T02:55:40;99655.00;;;10.30
11424;BMP180;5768;51.476;7.210;2023-04-25T03:00:42;99658.00;;;10.30
11424;BMP180;5768;51.476;7.210;2023-04-25T03:05:44;99662.00;;;10.30
11424;BMP180;5768;51.476;7.210;2023-04-25T03:10:49;99666.00;;;10.30
11424;BMP180;5768;51.476;7.210;2023-04-25T03:15:52;99667.00;;;10.20
11424;BMP180;5768;51.476;7.210;2023-04-25T03:20:55;99659.00;;;10.30
11424;BMP180;5768;51.476;7.210;2023-04-25T03:25:58;99659.00;;;10.20
11424;BMP180;5768;51.476;7.210;2023-04-25T03:31:04;99659.00;;;10.20
11424;BMP180;5768;51.476;7.210;2023-04-25T03:36:07;99671.00;;;10.20
11424;BMP180;5768;51.476;7.210;2023-04-25T03:41:11;99677.00;;;10.20
11424;BMP180;5768;51.476;7.210;2023-04-25T03:46:14;99677.00;;;10.20
11424;BMP180;5768;51.476;7.210;2023-04-25T03:51:16;99682.00;;;10.20
11424;BMP180;5768;51.476;7.210;2023-04-25T03:56:20;99682.00;;;10.20
11424;BMP180;5768;51.476;7.210;2023-04-25T04:01:22;99677.00;;;10.20
11424;BMP180;5768;51.476;7.210;2023-04-25T04:06:24;99701.00;;;10.30
11424;BMP180;5768;51.476;7.210;2023-04-25T04:11:29;99708.00;;;10.10
11424;BMP180;5768;51.476;7.210;2023-04-25T04:16:32;99705.00;;;10.10
11424;BMP180;5768;51.476;7.210;2023-04-25T04:21:34;99709.00;;;10.10
11424;BMP180;5768;51.476;7.210;2023-04-25T04:26:39;99717.00;;;9.90
11424;BMP180;5768;51.476;7.210;2023-04-25T04:31:42;99712.00;;;9.70
11424;BMP180;5768;51.476;7.210;2023-04-25T04:36:44;99716.00;;;9.50
11424;BMP180;5768;51.476;7.210;2023-04-25T04:41:48;99713.00;;;9.60
11424;BMP180;5768;51.476;7.210;2023-04-25T04:46:51;99728.00;;;9.70
11424;BMP180;5768;51.476;7.210;2023-04-25T04:51:54;99722.00;;;9.70
11424;BMP180;5768;51.476;7.210;2023-04-25T04:56:58;99735.00;;;9.70
11424;BMP180;5768;51.476;7.210;2023-04-25T05:02:00;99731.00;;;9.80
11424;BMP180;5768;51.476;7.210;2023-04-25T05:07:02;99751.00;;;9.80
11424;BMP180;5768;51.476;7.210;2023-04-25T05:12:06;99752.00;;;10.00
11424;BMP180;5768;51.476;7.210;2023-04-25T05:17:11;99752.00;;;10.00
11424;BMP180;5768;51.476;7.210;2023-04-25T05:22:13;99760.00;;;10.10
11424;BMP180;5768;51.476;7.210;2023-04-25T05:27:20;99768.00;;;10.20
11424;BMP180;5768;51.476;7.210;2023-04-25T05:32:22;99777.00;;;10.20
11424;BMP180;5768;51.476;7.210;2023-04-25T05:37:25;99788.00;;;10.30
11424;BMP180;5768;51.476;7.210;2023-04-25T05:42:29;99779.00;;;10.40
11424;BMP180;5768;51.476;7.210;2023-04-25T05:47:31;99782.00;;;10.50
11424;BMP180;5768;51.476;7.210;2023-04-25T05:52:37;99788.00;;;10.70
11424;BMP180;5768;51.476;7.210;2023-04-25T05:57:41;99796.00;;;10.70
11424;BMP180;5768;51.476;7.210;2023-04-25T06:02:45;99803.00;;;10.70
11424;BMP180;5768;51.476;7.210;2023-04-25T06:07:48;99802.00;;;10.80
11424;BMP180;5768;51.476;7.210;2023-04-25T06:12:51;99826.00;;;10.80
11424;BMP180;5768;51.476;7.210;2023-04-25T06:17:53;99820.00;;;10.90
11424;BMP180;5768;51.476;7.210;2023-04-25T06:22:56;99822.00;;;10.80
11424;BMP180;5768;51.476;7.210;2023-04-25T06:27:59;99826.00;;;10.70
11424;BMP180;5768;51.476;7.210;2023-04-25T06:33:02;99830.00;;;11.10
11424;BMP180;5768;51.476;7.210;2023-04-25T06:38:04;99836.00;;;11.40
11424;BMP180;5768;51.476;7.210;2023-04-25T06:43:08;99841.00;;;11.60
11424;BMP180;5768;51.476;7.210;2023-04-25T06:48:10;99840.00;;;11.80
11424;BMP180;5768;51.476;7.210;2023-04-25T06:53:12;99840.00;;;11.70
11424;BMP180;5768;51.476;7.210;2023-04-25T06:58:16;99846.00;;;11.80
11424;BMP180;5768;51.476;7.210;2023-04-25T07:03:18;99847.00;;;11.70
11424;BMP180;5768;51.476;7.210;2023-04-25T07:08:21;99850.00;;;11.60
11424;BMP180;5768;51.476;7.210;2023-04-25T07:13:24;99866.00;;;11.40
11424;BMP180;5768;51.476;7.210;2023-04-25T07:18:27;99866.00;;;11.30
11424;BMP180;5768;51.476;7.210;2023-04-25T07:23:29;99861.00;;;11.40
11424;BMP180;5768;51.476;7.210;2023-04-25T07:28:33;99876.00;;;11.50
11424;BMP180;5768;51.476;7.210;2023-04-25T07:33:35;99870.00;;;11.70
11424;BMP180;5768;51.476;7.210;2023-04-25T07:38:38;99873.00;;;11.90
11424;BMP180;5768;51.476;7.210;2023-04-25T07:43:41;99893.00;;;12.20
11424;BMP180;5768;51.476;7.210;2023-04-25T07:48:43;99891.00;;;12.30
11424;BMP180;5768;51.476;7.210;2023-04-25T07:53:46;99893.00;;;12.20
11424;BMP180;5768;51.476;7.210;2023-04-25T07:58:49;99904.00;;;12.00
11424;BMP180;5768;51.476;7.210;2023-04-25T08:03:52;99907.00;;;12.50
11424;BMP180;5768;51.476;7.210;2023-04-25T08:08:54;99916.00;;;12.60
11424;BMP180;5768;51.476;7.210;2023-04-25T08:13:58;99925.00;;;12.70
11424;BMP180;5768;51.476;7.210;2023-04-25T08:19:00;99931.00;;;12.70
11424;BMP180;5768;51.476;7.210;2023-04-25T08:24:03;99943.00;;;13.00
11424;BMP180;5768;51.476;7.210;2023-04-25T08:29:07;99953.00;;;13.30
11424;BMP180;5768;51.476;7.210;2023-04-25T08:34:09;99950.00;;;13.70
11424;BMP180;5768;51.476;7.210;2023-04-25T08:39:11;99956.00;;;13.40
11424;BMP180;5768;51.476;7.210;2023-04-25T08:44:16;99968.00;;;13.20
11424;BMP180;5768;51.476;7.210;2023-04-25T08:49:19;99975.00;;;13.40
11424;BMP180;5768;51.476;7.210;2023-04-25T08:54:23;99978.00;;;13.50
11424;BMP180;5768;51.476;7.210;2023-04-25T08:59:31;99983.00;;;13.60
11424;BMP180;5768;51.476;7.210;2023-04-25T09:04:34;99984.00;;;13.90
11424;BMP180;5768;51.476;7.210;2023-04-25T09:09:36;99995.00;;;14.10
11424;BMP180;5768;51.476;7.210;2023-04-25T09:14:39;100005.00;;;14.30
11424;BMP180;5768;51.476;7.210;2023-04-25T09:19:43;100006.00;;;14.50
11424;BMP180;5768;51.476;7.210;2023-04-25T09:24:46;100019.00;;;14.50
11424;BMP180;5768;51.476;7.210;2023-04-25T09:29:59;100014.00;;;14.40
11424;BMP180;5768;51.476;7.210;2023-04-25T09:35:08;100035.00;;;14.60
11424;BMP180;5768;51.476;7.210;2023-04-25T09:40:12;100034.00;;;14.60
11424;BMP180;5768;51.476;7.210;2023-04-25T09:45:15;100038.00;;;14.70
11424;BMP180;5768;51.476;7.210;2023-04-25T09:50:18;100037.00;;;14.80
11424;BMP180;5768;51.476;7.210;2023-04-25T09:55:21;100041.00;;;14.90
11424;BMP180;5768;51.476;7.210;2023-04-25T10:00:25;100046.00;;;14.90
11424;BMP180;5768;51.476;7.210;2023-04-25T10:05:30;100050.00;;;14.90
11424;BMP180;5768;51.476;7.210;2023-04-25T10:10:34;100057.00;;;14.80
11424;BMP180;5768;51.476;7.210;2023-04-25T10:15:41;100051.00;;;15.10
11424;BMP180;5768;51.476;7.210;2023-04-25T10:20:44;100054.00;;;14.90
11424;BMP180;5768;51.476;7.210;2023-04-25T10:25:47;100058.00;;;14.70
11424;BMP180;5768;51.476;7.210;2023-04-25T10:31:02;100067.00;;;14.40
11424;BMP180;5768;51.476;7.210;2023-04-25T10:36:17;100065.00;;;14.20
11424;BMP180;5768;51.476;7.210;2023-04-25T10:41:22;100080.00;;;14.10
11424;BMP180;5768;51.476;7.210;2023-04-25T10:46:28;100074.00;;;14.10
11424;BMP180;5768;51.476;7.210;2023-04-25T10:51:35;100076.00;;;14.20
11424;BMP180;5768;51.476;7.210;2023-04-25T10:56:41;100086.00;;;14.10
11424;BMP180;5768;51.476;7.210;2023-04-25T11:01:48;100099.00;;;13.70
11424;BMP180;5768;51.476;7.210;2023-04-25T11:07:05;100128.00;;;13.50
11424;BMP180;5768;51.476;7.210;2023-04-25T11:12:10;100124.00;;;13.50
11424;BMP180;5768;51.476;7.210;2023-04-25T11:17:15;100125.00;;;13.60
11424;BMP180;5768;51.476;7.210;2023-04-25T11:22:22;100127.00;;;13.50
11424;BMP180;5768;51.476;7.210;2023-04-25T11:27:28;100127.00;;;13.50
11424;BMP180;5768;51.476;7.210;2023-04-25T11:32:52;100107.00;;;13.60
11424;BMP180;5768;51.476;7.210;2023-04-25T11:37:55;100117.00;;;14.10
11424;BMP180;5768;51.476;7.210;2023-04-25T11:43:01;100120.00;;;14.50
11424;BMP180;5768;51.476;7.210;2023-04-25T11:48:10;100138.00;;;14.50
11424;BMP180;5768;51.476;7.210;2023-04-25T11:53:13;100116.00;;;14.30
11424;BMP180;5768;51.476;7.210;2023-04-25T11:58:15;100119.00;;;14.50
11424;BMP180;5768;51.476;7.210;2023-04-25T12:03:23;100125.00;;;14.50
11424;BMP180;5768;51.476;7.210;2023-04-25T12:08:27;100123.00;;;14.90
11424;BMP180;5768;51.476;7.210;2023-04-25T12:13:35;100136.00;;;15.60
11424;BMP180;5768;51.476;7.210;2023-04-25T12:19:14;100118.00;;;15.80
11424;BMP180;5768;51.476;7.210;2023-04-25T12:24:50;100132.00;;;16.40
11424;BMP180;5768;51.476;7.210;2023-04-25T12:30:22;100127.00;;;17.40
11424;BMP180;5768;51.476;7.210;2023-04-25T12:35:32;100129.00;;;17.80
11424;BMP180;5768;51.476;7.210;2023-04-25T12:41:18;100121.00;;;17.30
11424;BMP180;5768;51.476;7.210;2023-04-25T12:47:14;100133.00;;;16.60
11424;BMP180;5768;51.476;7.210;2023-04-25T12:59:30;100136.00;;;15.50
11424;BMP180;5768;51.476;7.210;2023-04-25T13:04:48;100133.00;;;15.10
11424;BMP180;5768;51.476;7.210;2023-04-25T13:10:15;100153.00;;;14.80
11424;BMP180;5768;51.476;7.210;2023-04-25T13:15:33;100158.00;;;14.50
11424;BMP180;5768;51.476;7.210;2023-04-25T13:20:36;100171.00;;;14.50
11424;BMP180;5768;51.476;7.210;2023-04-25T13:25:53;100166.00;;;14.80
11424;BMP180;5768;51.476;7.210;2023-04-25T13:30:59;100169.00;;;14.50
11424;BMP180;5768;51.476;7.210;2023-04-25T13:36:05;100166.00;;;14.10
11424;BMP180;5768;51.476;7.210;2023-04-25T13:41:11;100170.00;;;13.90
11424;BMP180;5768;51.476;7.210;2023-04-25T13:46:30;100168.00;;;14.10
11424;BMP180;5768;51.476;7.210;2023-04-25T13:51:41;100160.00;;;14.60
11424;BMP180;5768;51.476;7.210;2023-04-25T13:56:45;100163.00;;;16.10
11424;BMP180;5768;51.476;7.210;2023-04-25T14:01:52;100179.00;;;21.00
11424;BMP180;5768;51.476;7.210;2023-04-25T14:06:55;100192.00;;;22.90
11424;BMP180;5768;51.476;7.210;2023-04-25T14:11:59;100183.00;;;25.00
11424;BMP180;5768;51.476;7.210;2023-04-25T14:17:03;100169.00;;;26.20
11424;BMP180;5768;51.476;7.210;2023-04-25T14:22:07;100182.00;;;26.60
11424;BMP180;5768;51.476;7.210;2023-04-25T14:27:10;100174.00;;;27.70
11424;BMP180;5768;51.476;7.210;2023-04-25T14:32:14;100193.00;;;29.80
11424;BMP180;5768;51.476;7.210;2023-04-25T14:37:20;100191.00;;;30.60
11424;BMP180;5768;51.476;7.210;2023-04-25T14:42:22;100190.00;;;31.40
11424;BMP180;5768;51.476;7.210;2023-04-25T14:47:26;100185.00;;;30.60
11424;BMP180;5768;51.476;7.210;2023-04-25T14:52:28;100181.00;;;32.20
11424;BMP180;5768;51.476;7.210;2023-04-25T14:57:31;100181.00;;;30.80
11424;BMP180;5768;51.476;7.210;2023-04-25T15:02:45;100172.00;;;25.70
11424;BMP180;5768;51.476;7.210;2023-04-25T15:07:47;100183.00;;;22.60
11424;BMP180;5768;51.476;7.210;2023-04-25T15:13:00;100194.00;;;20.80
11424;BMP180;5768;51.476;7.210;2023-04-25T15:18:04;100211.00;;;20.90
11424;BMP180;5768;51.476;7.210;2023-04-25T15:23:07;100201.00;;;21.30
11424;BMP180;5768;51.476;7.210;2023-04-25T15:28:09;100206.00;;;21.50
11424;BMP180;5768;51.476;7.210;2023-04-25T15:33:18;100207.00;;;24.60
11424;BMP180;5768;51.476;7.210;2023-04-25T15:38:20;100241.00;;;26.90
11424;BMP180;5768;51.476;7.210;2023-04-25T15:43:25;100223.00;;;26.70
11424;BMP180;5768;51.476;7.210;2023-04-25T15:48:31;100221.00;;;26.60
11424;BMP180;5768;51.476;7.210;2023-04-25T15:53:33;100228.00;;;24.00
11424;BMP180;5768;51.476;7.210;2023-04-25T15:58:36;100218.00;;;23.00
11424;BMP180;5768;51.476;7.210;2023-04-25T16:03:46;100206.00;;;22.60
11424;BMP180;5768;51.476;7.210;2023-04-25T16:08:54;100212.00;;;24.70
11424;BMP180;5768;51.476;7.210;2023-04-25T16:13:57;100213.00;;;23.30
11424;BMP180;5768;51.476;7.210;2023-04-25T16:19:03;100214.00;;;20.50
11424;BMP180;5768;51.476;7.210;2023-04-25T16:24:07;100221.00;;;21.70
11424;BMP180;5768;51.476;7.210;2023-04-25T16:29:33;100215.00;;;20.90
11424;BMP180;5768;51.476;7.210;2023-04-25T16:34:40;100218.00;;;20.10
11424;BMP180;5768;51.476;7.210;2023-04-25T16:39:43;100225.00;;;20.00
11424;BMP180;5768;51.476;7.210;2023-04-25T16:44:48;100238.00;;;22.40
11424;BMP180;5768;51.476;7.210;2023-04-25T16:49:53;100244.00;;;24.20
11424;BMP180;5768;51.476;7.210;2023-04-25T16:54:55;100240.00;;;22.10
11424;BMP180;5768;51.476;7.210;2023-04-25T17:00:06;100227.00;;;20.20
11424;BMP180;5768;51.476;7.210;2023-04-25T17:05:12;100240.00;;;18.40
11424;BMP180;5768;51.476;7.210;2023-04-25T17:10:15;100233.00;;;17.30
11424;BMP180;5768;51.476;7.210;2023-04-25T17:15:20;100246.00;;;16.70
11424;BMP180;5768;51.476;7.210;2023-04-25T17:20:23;100241.00;;;16.10
11424;BMP180;5768;51.476;7.210;2023-04-25T17:25:31;100258.00;;;16.50
11424;BMP180;5768;51.476;7.210;2023-04-25T17:30:43;100262.00;;;16.50
11424;BMP180;5768;51.476;7.210;2023-04-25T17:35:59;100243.00;;;16.40
11424;BMP180;5768;51.476;7.210;2023-04-25T17:41:01;100257.00;;;16.90
11424;BMP180;5768;51.476;7.210;2023-04-25T17:46:03;100247.00;;;16.20
11424;BMP180;5768;51.476;7.210;2023-04-25T17:51:11;100266.00;;;15.90
11424;BMP180;5768;51.476;7.210;2023-04-25T17:56:16;100273.00;;;16.20
11424;BMP180;5768;51.476;7.210;2023-04-25T18:01:36;100280.00;;;16.50
11424;BMP180;5768;51.476;7.210;2023-04-25T18:06:41;100290.00;;;15.90
11424;BMP180;5768;51.476;7.210;2023-04-25T18:11:46;100283.00;;;15.10
11424;BMP180;5768;51.476;7.210;2023-04-25T18:16:51;100286.00;;;14.60
11424;BMP180;5768;51.476;7.210;2023-04-25T18:22:11;100304.00;;;14.30
11424;BMP180;5768;51.476;7.210;2023-04-25T18:27:13;100312.00;;;14.00
11424;BMP180;5768;51.476;7.210;2023-04-25T18:32:16;100309.00;;;13.60
11424;BMP180;5768;51.476;7.210;2023-04-25T18:37:19;100313.00;;;13.20
11424;BMP180;5768;51.476;7.210;2023-04-25T18:42:21;100325.00;;;12.90
11424;BMP180;5768;51.476;7.210;2023-04-25T18:47:24;100326.00;;;12.70
11424;BMP180;5768;51.476;7.210;2023-04-25T18:52:27;100325.00;;;12.40
11424;BMP180;5768;51.476;7.210;2023-04-25T18:57:30;100335.00;;;12.30
11424;BMP180;5768;51.476;7.210;2023-04-25T19:02:33;100345.00;;;12.10
11424;BMP180;5768;51.476;7.210;2023-04-25T19:07:38;100355.00;;;11.90
11424;BMP180;5768;51.476;7.210;2023-04-25T19:12:41;100366.00;;;11.80
11424;BMP180;5768;51.476;7.210;2023-04-25T19:17:43;100355.00;;;11.60
11424;BMP180;5768;51.476;7.210;2023-04-25T19:22:48;100369.00;;;11.50
11424;BMP180;5768;51.476;7.210;2023-04-25T19:27:50;100378.00;;;11.40
11424;BMP180;5768;51.476;7.210;2023-04-25T19:32:53;100379.00;;;11.30
11424;BMP180;5768;51.476;7.210;2023-04-25T19:37:58;100380.00;;;11.10
11424;BMP180;5768;51.476;7.210;2023-04-25T19:43:00;100389.00;;;11.00
11424;BMP180;5768;51.476;7.210;2023-04-25T19:48:03;100391.00;;;10.90
11424;BMP180;5768;51.476;7.210;2023-04-25T19:53:07;100394.00;;;10.80
11424;BMP180;5768;51.476;7.210;2023-04-25T19:58:10;100392.00;;;10.80
11424;BMP180;5768;51.476;7.210;2023-04-25T20:03:14;100385.00;;;10.80
11424;BMP180;5768;51.476;7.210;2023-04-25T20:08:18;100386.00;;;10.70
11424;BMP180;5768;51.476;7.210;2023-04-25T20:13:20;100399.00;;;10.50
11424;BMP180;5768;51.476;7.210;2023-04-25T20:18:23;100398.00;;;10.40
11424;BMP180;5768;51.476;7.210;2023-04-25T20:23:27;100401.00;;;10.30
11424;BMP180;5768;51.476;7.210;2023-04-25T20:28:30;100398.00;;;10.20
11424;BMP180;5768;51.476;7.210;2023-04-25T20:33:33;100408.00;;;10.10
11424;BMP180;5768;51.476;7.210;2023-04-25T20:38:39;100412.00;;;10.00
11424;BMP180;5768;51.476;7.210;2023-04-25T20:43:41;100406.00;;;9.90
11424;BMP180;5768;51.476;7.210;2023-04-25T20:48:44;100411.00;;;9.90
11424;BMP180;5768;51.476;7.210;2023-04-25T20:53:50;100404.00;;;9.80
11424;BMP180;5768;51.476;7.210;2023-04-25T20:58:56;100400.00;;;9.80
11424;BMP180;5768;51.476;7.210;2023-04-25T21:03:59;100407.00;;;9.70
11424;BMP180;5768;51.476;7.210;2023-04-25T21:09:02;100412.00;;;9.70
11424;BMP180;5768;51.476;7.210;2023-04-25T21:14:06;100405.00;;;9.60
11424;BMP180;5768;51.476;7.210;2023-04-25T21:19:09;100405.00;;;9.50
11424;BMP180;5768;51.476;7.210;2023-04-25T21:24:13;100406.00;;;9.50
11424;BMP180;5768;51.476;7.210;2023-04-25T21:29:16;100418.00;;;9.40
11424;BMP180;5768;51.476;7.210;2023-04-25T21:34:19;100418.00;;;9.40
11424;BMP180;5768;51.476;7.210;2023-04-25T21:39:28;100418.00;;;9.40
11424;BMP180;5768;51.476;7.210;2023-04-25T21:44:31;100424.00;;;9.30
11424;BMP180;5768;51.476;7.210;2023-04-25T21:49:33;100421.00;;;9.20
11424;BMP180;5768;51.476;7.210;2023-04-25T21:54:38;100420.00;;;9.10
11424;BMP180;5768;51.476;7.210;2023-04-25T21:59:40;100424.00;;;9.00
11424;BMP180;5768;51.476;7.210;2023-04-25T22:04:46;100429.00;;;9.00
11424;BMP180;5768;51.476;7.210;2023-04-25T22:09:49;100433.00;;;8.90
11424;BMP180;5768;51.476;7.210;2023-04-25T22:14:52;100446.00;;;8.80
11424;BMP180;5768;51.476;7.210;2023-04-25T22:19:54;100437.00;;;8.70
11424;BMP180;5768;51.476;7.210;2023-04-25T22:24:58;100448.00;;;8.70
11424;BMP180;5768;51.476;7.210;2023-04-25T22:30:00;100450.00;;;8.70
11424;BMP180;5768;51.476;7.210;2023-04-25T22:35:05;100442.00;;;8.70
11424;BMP180;5768;51.476;7.210;2023-04-25T22:40:11;100455.00;;;8.60
11424;BMP180;5768;51.476;7.210;2023-04-25T22:45:14;100455.00;;;8.50
11424;BMP180;5768;51.476;7.210;2023-04-25T22:50:17;100462.00;;;8.50
11424;BMP180;5768;51.476;7.210;2023-04-25T22:55:21;100484.00;;;8.40
11424;BMP180;5768;51.476;7.210;2023-04-25T23:00:24;100468.00;;;8.40
11424;BMP180;5768;51.476;7.210;2023-04-25T23:05:29;100480.00;;;8.30
11424;BMP180;5768;51.476;7.210;2023-04-25T23:10:34;100476.00;;;8.30
11424;BMP180;5768;51.476;7.210;2023-04-25T23:15:37;100479.00;;;8.20
11424;BMP180;5768;51.476;7.210;2023-04-25T23:20:40;100476.00;;;8.20
11424;BMP180;5768;51.476;7.210;2023-04-25T23:25:44;100481.00;;;8.20
11424;BMP180;5768;51.476;7.210;2023-04-25T23:30:46;100483.00;;;8.10
11424;BMP180;5768;51.476;7.210;2023-04-25T23:35:48;100480.00;;;8.10
11424;BMP180;5768;51.476;7.210;2023-04-25T23:40:52;100488.00;;;8.00
11424;BMP180;5768;51.476;7.210;2023-04-25T23:45:55;100480.00;;;8.00
11424;BMP180;5768;51.476;7.210;2023-04-25T23:50:57;100483.00;;;8.00
11424;BMP180;5768;51.476;7.210;2023-04-25T23:56:02;100484.00;;;7.90
